Amory, Mississippi
Current Conditions -  °F | °C
As of 2:35 PM on Thursday 23 Oct 2014 (Local Time) from KM40 Reporting Station
Clear Clear  
Wind Chill: 70°   Ceiling: Unl
Heat Index: 70°   Visibility: 10mi
Dew Point: 54°   Wind: 6mph
Humidity: 56%   Direction: 310°NW
Pressure: 30.11"   Gusts: NA
Location:  33.99°N, 88.49°W
Report Text: KM40 231935Z AUTO 31005KT 10SM CLR 21/12 A3011 RMK AO2
Loading
Personal Weather Stations






























Interactive Weather Map
Tropical Storm Tracking
New forecast layout! Learn more

10-Day Weather Forecast

Advertisements
Track Severe Weather on mobile